Latest Weather Observations for Yamba

IDN60801

Issued at 3:35 pm EST Saturday 19 April 2014 (issued every 30 minutes, with the page automatically refreshed every 10 minutes)

About weather observations | Map of weather stations | Latest weather observations for NSW | Other Formats
Station Details ID: 058012 Name: YAMBA PILOT STATION Lat: -29.43 Lon: 153.36 Height: 27.4 m
Data from the previous 72 hours. | See also: Recent months at Yamba
Date/Time
EST
Temp
°C
App
Temp
°C
Dew
Point
Rel
Hum
%
Delta-T
°C
Wind Press
QNH
hPa
Press
MSL
hPa
Rain
since 9 am
mm
Dir
 
Spd
km/h
Gust
km/h
Spd
kts
Gust
kts
19/03:30pm 23.8 22.7 14.2 55 5.7 ESE 13 17 7 9 1013.5 - 0.0
19/03:00pm 24.0 22.8 15.0 57 5.4 ESE 15 20 8 11 1013.6 1013.5 0.0
19/02:30pm 24.2 22.2 14.9 56 5.6 SE 19 22 10 12 1013.5 - 0.0
19/02:00pm 24.3 23.0 15.8 59 5.2 ESE 17 20 9 11 1013.6 - 0.0
19/01:30pm 24.5 22.5 14.9 55 5.7 ESE 19 24 10 13 1013.8 - 0.0
19/01:00pm 24.5 22.4 14.6 54 5.9 SE 19 24 10 13 1014.1 - 0.0
19/12:30pm 24.9 24.5 16.1 58 5.4 SSE 13 20 7 11 1014.6 - 0.0
19/12:00pm 25.0 24.2 13.9 50 6.5 SSW 11 17 6 9 1014.8 1014.6 0.0
19/11:30am 24.5 23.7 14.0 52 6.2 SSW 11 17 6 9 1015.3 - 0.0
19/11:00am 23.9 24.1 15.7 60 5.0 WSW 9 17 5 9 1015.8 - 0.0
19/10:30am 23.0 23.0 15.3 62 4.6 SW 9 15 5 8 1016.0 - 0.0
19/10:00am 22.2 22.0 15.8 67 3.8 WSW 11 20 6 11 1016.3 - 0.0
19/09:30am 20.6 19.0 13.8 65 3.9 WSW 15 26 8 14 1016.4 - 0.0
19/09:00am 19.5 18.9 14.5 73 2.9 SW 11 19 6 10 1016.6 1016.4 0.0
19/08:30am 18.2 17.4 13.9 76 2.5 WSW 11 19 6 10 1016.6 - 0.0
19/08:00am 17.2 16.4 14.1 82 1.8 WSW 11 19 6 10 1016.6 - 0.0
19/07:30am 15.9 15.1 13.9 88 1.1 WSW 11 22 6 12 1016.5 - 0.0
19/07:00am 14.8 13.9 13.7 93 0.6 WSW 11 15 6 8 1016.3 - 0.0
19/06:30am 14.3 13.5 14.0 98 0.2 W 11 17 6 9 1016.0 - 0.0
19/06:00am 14.3 13.1 14.0 98 0.2 W 13 19 7 10 1015.8 1015.6 0.0
19/05:30am 14.5 13.4 14.2 98 0.2 W 13 17 7 9 1015.6 - 0.0
19/05:00am 14.7 13.6 14.2 97 0.3 WSW 13 17 7 9 1015.3 - 0.0
19/04:30am 14.5 13.8 14.2 98 0.2 WSW 11 17 6 9 1015.2 - 0.0
19/04:00am 14.8 14.1 14.3 97 0.3 W 11 15 6 8 1015.2 - 0.0
19/03:30am 14.9 14.2 14.3 96 0.3 W 11 17 6 9 1015.0 - 0.0
19/03:00am 15.5 14.9 14.7 95 0.5 W 11 17 6 9 1014.9 1014.7 0.0
19/02:30am 15.8 15.2 14.7 93 0.6 W 11 15 6 8 1015.0 - 0.0
19/02:00am 16.8 16.4 15.2 90 0.9 WSW 11 13 6 7 1015.0 - 0.0
19/01:30am 17.4 17.2 15.6 89 1.1 SSW 11 15 6 8 1015.3 - 0.0
19/01:00am 17.2 16.8 15.2 88 1.2 SW 11 17 6 9 1015.5 - 0.0
19/12:30am 17.5 16.8 15.3 87 1.3 SW 13 19 7 10 1015.6 - 0.0
19/12:00am 18.0 17.5 15.8 87 1.3 SW 13 17 7 9 1015.8 1015.6 0.0
 
Date/Time
EST
Temp
°C
App
Temp
°C
Dew
Point
Rel
Hum
%
Delta-T
°C
Wind Press
QNH
hPa
Press
MSL
hPa
Rain
since 9 am
mm
Dir
 
Spd
km/h
Gust
km/h
Spd
kts
Gust
kts
18/11:30pm 17.6 17.1 15.9 90 1.0 SW 13 20 7 11 1015.8 - 0.0
18/11:00pm 18.1 18.5 16.4 90 1.0 WSW 9 11 5 6 1015.9 - 0.0
18/10:30pm 18.7 18.7 16.3 86 1.4 WSW 11 13 6 7 1015.9 - 0.0
18/10:00pm 18.3 18.4 16.6 90 1.0 W 11 15 6 8 1015.9 - 0.0
18/09:30pm 18.3 18.5 16.8 91 0.9 W 11 13 6 7 1015.9 - 0.0
18/09:00pm 18.9 20.0 17.0 89 1.1 W 7 11 4 6 1015.8 1015.6 0.0
18/08:30pm 20.7 22.7 16.9 79 2.3 NNE 2 9 1 5 1015.7 - 0.0
18/08:00pm 21.5 22.4 16.2 72 3.2 NE 6 9 3 5 1015.4 - 0.0
18/07:30pm 21.7 22.0 16.0 70 3.4 E 9 13 5 7 1014.9 - 0.0
18/07:00pm 21.7 22.0 16.0 70 3.4 E 9 11 5 6 1014.6 - 0.0
18/06:30pm 21.7 21.8 15.5 68 3.7 E 9 13 5 7 1014.4 - 0.0
18/06:00pm 21.7 22.1 16.4 72 3.2 E 9 15 5 8 1014.0 1013.9 0.0
18/05:30pm 21.6 21.9 16.1 71 3.3 E 9 15 5 8 1013.7 - 0.0
18/05:00pm 21.9 21.0 16.8 73 3.1 E 17 20 9 11 1013.4 - 0.0
18/04:30pm 22.1 21.6 17.0 73 3.1 E 15 19 8 10 1013.3 - 0.0
18/04:00pm 22.3 22.4 17.4 74 3.0 E 13 20 7 11 1013.2 - 0.0
18/03:30pm 22.5 23.1 17.6 74 3.0 E 11 15 6 8 1013.4 - 0.0
18/03:00pm 22.6 22.9 17.9 75 2.9 ESE 13 19 7 10 1013.4 1013.3 0.0
18/02:30pm 23.2 23.6 19.1 78 2.6 ESE 15 20 8 11 1013.5 - 0.0
18/02:00pm 22.6 22.8 18.6 78 2.5 ESE 15 19 8 10 1013.6 - 0.0
18/01:30pm 24.7 25.7 16.9 62 4.8 NNW 7 17 4 9 1013.7 - 0.0
18/01:00pm 23.6 24.8 17.3 67 3.9 SW 7 13 4 7 1013.9 - 0.0
18/12:30pm 25.0 26.3 18.4 66 4.2 W 9 15 5 8 1014.5 - 0.0
18/12:00pm 25.0 26.1 18.9 69 3.9 NW 11 19 6 10 1015.1 1014.9 0.0
18/11:30am 24.1 24.7 18.7 72 3.4 WNW 13 20 7 11 1015.7 - 0.0
18/11:00am 22.8 23.8 17.7 73 3.2 WSW 9 17 5 9 1016.2 - 0.0
18/10:30am 22.7 23.6 18.5 77 2.6 W 11 19 6 10 1016.7 - 0.0
18/10:00am 21.5 22.2 17.9 80 2.2 WSW 11 17 6 9 1017.1 - 0.0
18/09:30am 20.1 20.6 17.5 85 1.6 WSW 11 17 6 9 1017.3 - 0.0
18/09:00am 21.0 21.3 18.0 83 1.9 W 13 19 7 10 1017.4 1017.2 0.0
18/08:30am 19.2 19.8 16.8 86 1.4 WSW 9 15 5 8 1017.4 - 0.0
18/08:00am 18.8 19.4 16.9 89 1.1 SW 9 13 5 7 1017.4 - 0.0
18/07:30am 17.3 17.7 16.3 94 0.6 SW 9 17 5 9 1017.4 - 0.0
18/07:00am 16.0 16.2 15.7 98 0.2 WSW 9 15 5 8 1017.2 - 0.0
18/06:30am 15.4 15.4 15.2 99 0.1 W 9 13 5 7 1016.9 - 0.0
18/06:00am 15.1 15.0 14.9 99 0.1 WSW 9 15 5 8 1016.5 1016.3 0.0
18/05:30am 15.0 15.2 14.8 99 0.1 W 7 11 4 6 1016.5 - 0.0
18/05:00am 15.3 15.3 15.1 99 0.1 WSW 9 13 5 7 1016.5 - 0.0
18/04:30am 15.4 15.7 15.1 98 0.2 WSW 7 13 4 7 1016.4 - 0.0
18/04:00am 15.7 16.1 15.4 98 0.2 SW 7 9 4 5 1016.3 - 0.0
18/03:30am 15.8 16.3 15.5 98 0.2 SW 7 11 4 6 1016.4 - 0.0
18/03:00am 16.0 16.2 15.7 98 0.2 WSW 9 13 5 7 1016.5 1016.3 0.0
18/02:30am 16.1 16.6 15.6 97 0.3 WSW 7 11 4 6 1016.6 - 0.0
18/02:00am 16.4 17.0 15.8 96 0.4 WSW 7 11 4 6 1016.7 - 0.0
18/01:30am 17.0 17.7 16.0 94 0.6 SW 7 13 4 7 1016.8 - 0.0
18/01:00am 17.1 17.8 16.0 93 0.6 WSW 7 11 4 6 1017.1 - 0.0
18/12:30am 17.5 18.2 16.2 92 0.8 SW 7 11 4 6 1017.4 - 0.0
18/12:00am 17.9 18.8 16.6 92 0.8 WSW 7 11 4 6 1017.6 1017.4 0.0
 
Date/Time
EST
Temp
°C
App
Temp
°C
Dew
Point
Rel
Hum
%
Delta-T
°C
Wind Press
QNH
hPa
Press
MSL
hPa
Rain
since 9 am
mm
Dir
 
Spd
km/h
Gust
km/h
Spd
kts
Gust
kts
17/11:30pm 18.7 19.8 17.2 91 0.9 WSW 7 11 4 6 1017.8 - 0.0
17/11:00pm 19.1 19.9 17.4 90 1.0 SW 9 17 5 9 1017.7 - 0.0
17/10:30pm 20.0 21.5 18.1 89 1.2 SW 7 11 4 6 1018.0 - 0.0
17/10:00pm 21.4 20.8 18.4 83 1.9 SSE 19 32 10 17 1017.8 - 0.0
17/09:30pm 21.1 20.4 18.3 84 1.7 S 19 30 10 16 1017.9 - 0.0
17/09:00pm 21.4 20.9 19.1 87 1.5 SSE 20 30 11 16 1017.7 1017.5 0.0
17/08:30pm 21.7 20.3 18.9 84 1.8 SSE 24 30 13 16 1017.5 - 0.0
17/08:00pm 21.6 20.8 18.4 82 2.0 SSE 20 32 11 17 1017.2 - 0.0
17/07:30pm 21.7 20.5 19.3 86 1.5 SSE 24 35 13 19 1017.0 - 0.0
17/07:00pm 22.0 20.7 19.0 83 1.9 SSE 24 32 13 17 1016.5 - 0.0
17/06:30pm 21.9 21.0 18.3 80 2.3 SSE 20 30 11 16 1016.2 - 0.0
17/06:00pm 21.9 19.7 17.9 78 2.5 SE 26 35 14 19 1015.8 1015.6 0.0
17/05:30pm 21.9 19.8 18.1 79 2.4 SE 26 35 14 19 1015.7 - 0.0
17/05:00pm 22.0 20.2 17.8 77 2.6 SSE 24 32 13 17 1015.6 - 0.0
17/04:30pm 22.2 20.2 18.2 78 2.5 SE 26 33 14 18 1015.4 - 0.0
17/04:00pm 22.5 20.8 18.1 76 2.7 SE 24 32 13 17 1015.3 - 0.0
17/03:30pm 22.7 21.1 17.4 72 3.3 SE 22 30 12 16 1015.3 - 0.0
17/03:00pm 22.7 20.8 17.6 73 3.2 SE 24 30 13 16 1015.4 1015.2 0.0
17/02:30pm 22.9 21.7 17.6 72 3.3 SE 20 28 11 15 1015.6 - 0.0
17/02:00pm 22.9 21.8 17.4 71 3.4 SE 19 24 10 13 1015.9 - 0.0
17/01:30pm 23.0 21.9 17.7 72 3.3 SE 20 28 11 15 1016.1 - 0.0
17/01:00pm 22.8 20.9 17.7 73 3.2 SE 24 30 13 16 1016.2 - 0.0
17/12:30pm 23.0 21.7 18.1 74 3.1 SE 22 28 12 15 1016.6 - 0.0
17/12:00pm 22.8 21.5 17.3 71 3.4 SE 20 24 11 13 1017.1 1016.9 0.0
17/11:30am 23.1 22.2 17.8 72 3.3 SE 19 24 10 13 1017.4 - 0.0
17/11:00am 22.7 22.5 16.7 69 3.7 SSW 13 19 7 10 1017.8 - 0.0
17/10:30am 22.3 22.3 16.3 69 3.6 SW 11 20 6 11 1018.0 - 0.0
17/10:00am 21.7 21.2 15.8 69 3.5 WSW 13 20 7 11 1018.3 - 0.0
17/09:30am 21.0 21.1 16.6 76 2.7 WSW 11 20 6 11 1018.4 - 0.0
17/09:00am 19.9 20.0 16.5 81 2.0 WSW 11 17 6 9 1018.5 1018.3 0.0
17/08:30am 18.7 18.9 16.8 89 1.1 WSW 11 17 6 9 1018.4 - 0.0
17/08:00am 17.5 17.9 16.2 92 0.8 SW 9 20 5 11 1018.4 - 0.0
17/07:30am 16.5 16.8 15.9 96 0.4 SW 9 15 5 8 1018.2 - 0.0
17/07:00am 15.7 15.4 15.5 99 0.1 SW 11 17 6 9 1017.9 - 0.0
17/06:30am 15.1 14.6 14.9 99 0.1 SW 11 19 6 10 1017.5 - 0.0
17/06:00am 15.1 15.0 14.9 99 0.1 SW 9 15 5 8 1017.0 1016.8 0.0
17/05:30am 15.0 14.8 14.8 99 0.1 SW 9 13 5 7 1016.8 - 0.0
17/05:00am 15.0 15.2 14.8 99 0.1 SW 7 11 4 6 1016.5 - 0.0
17/04:30am 15.5 15.5 15.2 98 0.2 WSW 9 15 5 8 1016.3 - 0.0
17/04:00am 15.5 15.5 15.2 98 0.2 SW 9 11 5 6 1016.2 - 0.0
17/03:30am 16.0 16.1 15.4 96 0.3 SW 9 15 5 8 1015.9 - 0.0
17/03:00am 16.1 16.0 15.0 93 0.6 SW 9 17 5 9 1015.9 1015.7 0.0
17/02:30am 16.4 16.7 14.6 89 1.0 SW 6 11 3 6 1016.0 - 0.0
17/02:00am 16.9 17.0 14.5 86 1.4 SW 7 11 4 6 1016.2 - 0.0
17/01:30am 16.8 16.5 14.3 85 1.4 WSW 9 13 5 7 1016.3 - 0.0
17/01:00am 17.9 17.7 14.6 81 1.9 SSW 9 15 5 8 1016.4 - 0.0
17/12:30am 18.3 17.8 14.8 80 2.0 SSW 11 22 6 12 1016.6 - 0.0
17/12:00am 18.7 18.1 14.6 77 2.4 SSW 11 17 6 9 1016.7 1016.5 0.0
 
Date/Time
EST
Temp
°C
App
Temp
°C
Dew
Point
Rel
Hum
%
Delta-T
°C
Wind Press
QNH
hPa
Press
MSL
hPa
Rain
since 9 am
mm
Dir
 
Spd
km/h
Gust
km/h
Spd
kts
Gust
kts
16/11:30pm 18.7 17.8 14.8 78 2.3 S 13 20 7 11 1016.9 - 0.0
16/11:00pm 19.0 18.2 15.1 78 2.3 SSW 13 19 7 10 1017.0 - 0.0
16/10:30pm 19.1 18.7 15.2 78 2.3 SSW 11 19 6 10 1017.1 - 0.0
16/10:00pm 19.2 18.2 15.5 79 2.2 SSW 15 26 8 14 1017.1 - 0.0
16/09:30pm 19.4 17.8 15.9 80 2.1 S 19 26 10 14 1016.8 - 0.0
16/09:00pm 19.8 18.6 16.1 79 2.2 S 17 22 9 12 1016.7 1016.5 0.0
16/08:30pm 20.2 19.6 16.6 80 2.2 S 15 26 8 14 1016.7 - 0.0
16/08:00pm 20.3 19.7 16.7 80 2.2 S 15 22 8 12 1016.3 - 0.0
16/07:30pm 21.9 19.9 17.5 76 2.7 SSE 24 37 13 20 1016.0 - 0.0
16/07:00pm 21.6 20.3 18.2 81 2.1 SSE 22 32 12 17 1015.8 - 0.0
16/06:30pm 21.7 20.2 18.5 82 2.0 SSE 24 37 13 20 1015.5 - 0.0
16/06:00pm 21.8 20.5 18.2 80 2.2 SSE 22 33 12 18 1015.2 1015.0 0.0
16/05:30pm 21.7 21.0 18.3 81 2.1 SSE 19 30 10 16 1014.9 - 0.0
16/05:00pm 22.0 21.8 18.6 81 2.1 SSE 17 28 9 15 1014.8 - 0.0
16/04:30pm 22.3 21.8 19.1 82 2.0 SSE 20 35 11 19 1014.5 - 0.0
16/04:00pm 22.6 21.5 18.6 78 2.5 SSE 22 35 12 19 1014.2 - 0.0

Other Formats:

Comma delimited format used in spreadsheet applications
http://www.bom.gov.au/fwo/IDN60801/IDN60801.94589.axf

JavaScript Object Notation format (JSON) in row-major order
http://www.bom.gov.au/fwo/IDN60801/IDN60801.94589.json